Terminal Aerodrome Forecast
Issued by NWS

Home | Current Version | Previous Version | Text Only | Print | Product List | Glossary On
Versions: 1 2 3 4 5 6 7 8 9 10 11 12 13 14 15 16 17
000
FTUS43 KIND 032320
TAFLAF
TAF
KLAF 032320Z 0400/0424 27009KT P6SM SCT250
     FM040100 24004KT P6SM SCT250
     FM040700 00000KT 3SM BR SCT070 BKN250
     FM041300 24006KT P6SM SCT040
      AMD LTD TO CLD VIS AND WIND 0401/0413=

USA.gov is the U.S. government's official web portal to all federal, state and local government web resources and services.